Time;durP1;ratioP1;P1;durP2;ratioP2;P2;SDS_P1;SDS_P2;PMS_P1;PMS_P2;Temp;Humidity;BMP_temperature;BMP_pressure;BME280_temperature;BME280_humidity;BME280_pressure;Samples;Min_cycle;Max_cycle;Signal;HPM_P1;HPM_P2
2022/06/22 00:02:34;;;;;;;1.65;1.15;;;22.70;52.90;;;;;;4419489;32;20413;-67
2022/06/22 00:05:48;;;;;;;2.00;1.10;;;22.70;53.00;;;;;;4419447;32;20118;-67
2022/06/22 00:08:26;;;;;;;2.00;1.10;;;22.70;52.90;;;;;;4430745;32;20163;-67
2022/06/22 00:10:53;;;;;;;2.50;1.13;;;22.70;53.00;;;;;;4430833;32;20070;-67
2022/06/22 00:13:26;;;;;;;2.15;0.90;;;22.70;52.90;;;;;;4430642;32;20499;-67
2022/06/22 00:16:14;;;;;;;1.98;1.00;;;22.70;53.00;;;;;;4430967;32;20067;-67
2022/06/22 00:18:47;;;;;;;2.38;1.30;;;22.70;53.10;;;;;;4430413;32;20189;-68
2022/06/22 00:21:37;;;;;;;2.25;0.90;;;22.60;53.00;;;;;;4419114;32;20085;-67
2022/06/22 00:24:22;;;;;;;1.65;0.90;;;22.70;53.00;;;;;;4419160;32;20093;-67
2022/06/22 00:26:56;;;;;;;1.00;0.90;;;22.60;53.00;;;;;;4430394;32;20469;-67
2022/06/22 00:29:45;;;;;;;1.95;0.95;;;22.60;53.00;;;;;;4419078;32;20132;-67
2022/06/22 00:32:31;;;;;;;1.13;0.88;;;22.60;53.00;;;;;;4419096;32;20078;-67
2022/06/22 00:35:44;;;;;;;2.42;0.73;;;22.60;53.00;;;;;;4418759;32;20097;-67
2022/06/22 00:38:36;;;;;;;1.88;0.93;;;22.60;53.00;;;;;;4430093;32;20475;-67
2022/06/22 00:41:22;;;;;;;1.95;1.00;;;22.60;53.00;;;;;;4429872;32;20164;-67
2022/06/22 00:43:49;;;;;;;1.75;1.08;;;22.60;52.90;;;;;;4430253;32;20397;-68
2022/06/22 00:46:23;;;;;;;1.73;0.90;;;22.60;53.00;;;;;;4430210;32;20132;-67
2022/06/22 00:48:54;;;;;;;1.42;0.90;;;22.60;53.00;;;;;;4429951;32;20121;-67
2022/06/22 00:51:34;;;;;;;1.95;1.30;;;22.60;53.00;;;;;;4429811;32;20207;-67
2022/06/22 00:54:05;;;;;;;1.45;0.85;;;22.60;53.00;;;;;;4430467;32;20224;-67
2022/06/22 00:56:36;;;;;;;2.05;1.00;;;22.60;53.00;;;;;;4430374;32;20075;-67
2022/06/22 00:59:14;;;;;;;1.52;0.80;;;22.60;53.00;;;;;;4430338;32;20539;-67
2022/06/22 01:02:37;;;;;;;1.83;1.10;;;22.60;53.00;;;;;;4418320;32;20141;-69
2022/06/22 01:05:29;;;;;;;0.90;0.70;;;22.60;53.10;;;;;;4430249;32;20572;-69
2022/06/22 01:08:06;;;;;;;1.55;0.90;;;22.60;53.00;;;;;;4429889;32;20618;-69
2022/06/22 01:10:41;;;;;;;1.10;0.80;;;22.50;52.90;;;;;;4415972;32;20126;-69
2022/06/22 01:13:28;;;;;;;2.22;1.20;;;22.50;53.00;;;;;;4429843;32;20196;-69
2022/06/22 01:15:56;;;;;;;1.63;0.90;;;22.50;53.00;;;;;;4430153;32;20074;-69
2022/06/22 01:18:33;;;;;;;1.08;0.90;;;22.50;53.10;;;;;;4429722;32;20560;-69
2022/06/22 01:21:24;;;;;;;1.45;0.90;;;22.50;53.00;;;;;;4429425;32;20090;-69
2022/06/22 01:24:43;;;;;;;1.50;1.02;;;22.50;53.00;;;;;;4418451;32;20519;-69
2022/06/22 01:27:29;;;;;;;1.23;1.00;;;22.50;53.10;;;;;;4421271;32;20097;-69
2022/06/22 01:29:58;;;;;;;1.52;1.00;;;22.50;53.10;;;;;;4429765;32;20480;-69
2022/06/22 01:32:34;;;;;;;1.05;0.82;;;22.50;53.10;;;;;;4429637;32;20086;-69
2022/06/22 01:35:03;;;;;;;1.67;0.85;;;22.50;53.10;;;;;;4429809;32;20062;-69
2022/06/22 01:37:33;;;;;;;1.35;0.90;;;22.50;53.10;;;;;;4415853;32;20078;-69
2022/06/22 01:40:20;;;;;;;1.30;0.90;;;22.50;53.10;;;;;;4429496;32;20156;-69
2022/06/22 01:43:13;;;;;;;1.48;0.80;;;22.50;53.10;;;;;;4429341;32;20164;-69
2022/06/22 01:46:18;;;;;;;1.80;0.90;;;22.50;53.10;;;;;;4418499;32;20086;-70
2022/06/22 01:48:53;;;;;;;1.77;1.00;;;22.50;53.20;;;;;;4429882;32;20479;-69
2022/06/22 01:51:43;;;;;;;1.45;0.80;;;22.40;53.20;;;;;;4429598;32;20504;-69
2022/06/22 01:54:50;;;;;;;1.40;0.95;;;22.40;53.10;;;;;;4430592;32;20381;-69
2022/06/22 01:57:28;;;;;;;2.15;1.02;;;22.40;53.20;;;;;;4366828;32;20110;-69
2022/06/22 02:00:10;;;;;;;3.25;0.80;;;22.40;53.20;;;;;;4424748;32;20085;-69
2022/06/22 02:03:22;;;;;;;1.08;0.90;;;22.40;53.20;;;;;;4407153;32;20078;-70
2022/06/22 02:05:56;;;;;;;0.95;0.73;;;22.40;53.20;;;;;;4422837;32;20248;-69
2022/06/22 02:08:42;;;;;;;;;;;22.40;53.30;;;;;;4408209;32;20163;-69
2022/06/22 02:11:35;;;;;;;1.30;0.77;;;22.40;53.30;;;;;;4418069;32;19971;-69
2022/06/22 02:14:13;;;;;;;1.83;1.08;;;22.40;53.30;;;;;;4429171;32;20427;-69
2022/06/22 02:16:52;;;;;;;1.23;0.88;;;22.40;53.30;;;;;;4429452;32;20087;-70
2022/06/22 02:19:20;;;;;;;1.30;0.95;;;22.40;53.40;;;;;;4429432;32;20390;-69
2022/06/22 02:22:11;;;;;;;1.38;0.80;;;22.40;53.40;;;;;;4417930;32;20221;-70
2022/06/22 02:24:48;;;;;;;1.08;0.70;;;22.40;53.40;;;;;;4417838;32;20090;-69
2022/06/22 02:27:33;;;;;;;1.15;0.77;;;22.40;53.40;;;;;;4420743;32;20224;-69
2022/06/22 02:30:00;;;;;;;0.60;0.60;;;22.30;53.40;;;;;;4405524;32;20531;-69
2022/06/22 02:32:46;;;;;;;1.00;0.65;;;22.40;53.50;;;;;;4420772;32;20133;-69
2022/06/22 02:35:13;;;;;;;1.67;1.08;;;22.30;53.40;;;;;;4432397;32;20067;-69
2022/06/22 02:37:49;;;;;;;0.43;0.43;;;22.30;53.50;;;;;;4432198;32;20085;-69
2022/06/22 02:46:35;;;;;;;0.98;0.68;;;22.30;53.50;;;;;;4420523;32;20092;-70
2022/06/22 02:49:31;;;;;;;1.73;1.00;;;22.30;53.50;;;;;;4410076;32;20521;-69
2022/06/22 02:51:59;;;;;;;0.77;0.73;;;22.30;53.50;;;;;;4431923;32;20082;-69
2022/06/22 02:54:30;;;;;;;1.10;0.65;;;22.30;53.50;;;;;;4431827;32;20133;-69
2022/06/22 02:57:12;;;;;;;0.90;0.70;;;22.30;53.50;;;;;;4431936;32;20089;-69
2022/06/22 02:59:38;;;;;;;0.95;0.85;;;22.30;53.50;;;;;;4418109;32;20094;-69
2022/06/22 03:02:05;;;;;;;0.88;0.70;;;22.30;53.50;;;;;;4431737;32;20094;-69
2022/06/22 03:04:32;;;;;;;1.10;0.60;;;22.20;53.50;;;;;;4431712;32;20539;-69
2022/06/22 03:06:59;;;;;;;1.13;0.82;;;22.20;53.50;;;;;;4431833;32;20086;-69
2022/06/22 03:09:28;;;;;;;1.00;0.70;;;22.20;53.50;;;;;;4431556;32;20471;-69
2022/06/22 03:11:58;;;;;;;1.70;0.93;;;22.20;53.50;;;;;;4417773;32;20089;-69
2022/06/22 03:14:51;;;;;;;0.73;0.60;;;22.20;53.50;;;;;;4419999;32;20074;-69
2022/06/22 03:17:19;;;;;;;1.35;0.70;;;22.20;53.50;;;;;;4431682;32;20156;-70
2022/06/22 03:19:57;;;;;;;1.30;0.82;;;22.20;53.50;;;;;;4431480;32;20098;-70
2022/06/22 03:22:46;;;;;;;2.10;0.82;;;22.20;53.50;;;;;;4420006;32;20074;-70
2022/06/22 03:25:24;;;;;;;0.90;0.63;;;22.20;53.60;;;;;;4431458;32;20117;-70
2022/06/22 03:27:59;;;;;;;1.13;0.70;;;22.20;53.60;;;;;;4431457;32;20110;-70
2022/06/22 03:30:55;;;;;;;0.75;0.60;;;22.20;53.60;;;;;;4420065;32;20194;-70
2022/06/22 03:33:36;;;;;;;1.20;0.80;;;22.20;53.60;;;;;;4431381;32;20089;-70
2022/06/22 03:36:10;;;;;;;1.15;0.70;;;22.20;53.50;;;;;;4431205;32;20540;-70
2022/06/22 03:38:46;;;;;;;0.77;0.65;;;22.20;53.60;;;;;;4431361;32;20082;-71
2022/06/22 03:41:18;;;;;;;1.60;0.90;;;22.20;53.60;;;;;;4430773;32;20074;-70
2022/06/22 03:44:09;;;;;;;1.25;0.80;;;22.20;53.60;;;;;;4430556;32;20066;-70
2022/06/22 03:47:07;;;;;;;0.88;0.65;;;22.20;53.70;;;;;;4409510;32;20090;-70
2022/06/22 03:50:02;;;;;;;0.80;0.70;;;22.10;53.60;;;;;;4431480;32;20212;-70
2022/06/22 03:52:51;;;;;;;1.13;0.85;;;22.10;53.60;;;;;;4429409;32;20223;-70
2022/06/22 03:55:29;;;;;;;0.85;0.70;;;22.10;53.60;;;;;;4430841;32;20078;-70
2022/06/22 03:57:59;;;;;;;1.10;0.68;;;22.10;53.70;;;;;;4417121;32;20066;-70
2022/06/22 04:00:25;;;;;;;1.67;0.85;;;22.10;53.70;;;;;;4430906;32;20196;-71
2022/06/22 04:03:13;;;;;;;1.20;0.80;;;22.10;53.70;;;;;;4419556;32;20145;-71
2022/06/22 04:05:50;;;;;;;0.88;0.70;;;22.10;53.80;;;;;;4430863;32;20419;-71
2022/06/22 04:08:36;;;;;;;1.13;0.88;;;22.10;53.70;;;;;;4431093;32;20156;-71
2022/06/22 04:11:19;;;;;;;0.60;0.55;;;22.10;53.70;;;;;;4431118;32;20176;-71
2022/06/22 04:14:12;;;;;;;0.93;0.70;;;22.10;53.70;;;;;;4419353;32;20066;-71
2022/06/22 04:16:49;;;;;;;;;;;22.10;53.70;;;;;;4431357;32;20075;-72
2022/06/22 04:19:46;;;;;;;0.73;0.50;;;22.10;53.70;;;;;;4409075;32;20109;-71
2022/06/22 04:22:18;;;;;;;0.93;0.60;;;22.10;53.80;;;;;;4430587;32;20161;-71
2022/06/22 04:25:05;;;;;;;1.00;0.60;;;22.00;53.70;;;;;;4430936;32;20090;-71
2022/06/22 04:27:38;;;;;;;1.00;0.60;;;22.00;53.70;;;;;;4430755;32;20108;-71
2022/06/22 04:30:13;;;;;;;0.90;0.70;;;22.00;53.80;;;;;;4430563;32;20086;-71
2022/06/22 04:33:04;;;;;;;0.98;0.68;;;22.00;53.80;;;;;;4430738;32;20071;-71
2022/06/22 04:35:56;;;;;;;0.73;0.73;;;22.00;53.70;;;;;;4430181;32;20443;-71
2022/06/22 04:38:49;;;;;;;0.50;0.50;;;22.00;53.70;;;;;;4429583;32;20396;-72
2022/06/22 04:41:24;;;;;;;1.08;0.60;;;22.00;53.70;;;;;;4430214;32;20093;-71
2022/06/22 04:44:30;;;;;;;0.98;0.60;;;22.00;53.70;;;;;;4418991;32;20221;-71
2022/06/22 04:47:04;;;;;;;1.10;0.68;;;22.00;53.70;;;;;;4430188;32;20070;-71
2022/06/22 04:49:53;;;;;;;0.82;0.52;;;22.00;53.80;;;;;;4408445;32;20480;-71
2022/06/22 04:52:33;;;;;;;0.68;0.60;;;22.00;53.80;;;;;;4430078;32;20078;-72
2022/06/22 04:55:02;;;;;;;0.80;0.80;;;22.00;53.80;;;;;;4430244;32;20097;-71
2022/06/22 04:57:35;;;;;;;0.95;0.52;;;22.00;53.80;;;;;;4416544;32;20479;-71
2022/06/22 05:00:13;;;;;;;0.57;0.50;;;22.00;53.80;;;;;;4430435;32;20086;-71
2022/06/22 05:02:41;;;;;;;0.88;0.70;;;22.00;53.90;;;;;;4416020;32;20496;-71
2022/06/22 05:05:25;;;;;;;0.60;0.60;;;22.00;53.90;;;;;;4430271;32;20066;-72
2022/06/22 05:08:06;;;;;;;1.00;0.70;;;22.00;53.90;;;;;;4429972;32;20211;-71
2022/06/22 05:10:49;;;;;;;0.65;0.57;;;22.00;53.90;;;;;;4416431;32;20104;-71
2022/06/22 05:13:42;;;;;;;0.73;0.52;;;22.00;53.90;;;;;;4408075;32;20078;-71
2022/06/22 05:16:15;;;;;;;1.13;0.52;;;21.90;53.90;;;;;;4416103;32;20603;-72
2022/06/22 05:18:43;;;;;;;0.60;0.40;;;21.90;53.90;;;;;;4430065;32;20118;-71
2022/06/22 05:21:37;;;;;;;0.65;0.47;;;21.90;53.90;;;;;;4418071;32;20086;-71
2022/06/22 05:24:35;;;;;;;0.52;0.47;;;22.00;54.00;;;;;;4418426;32;20070;-71
2022/06/22 05:27:05;;;;;;;0.70;0.50;;;22.00;54.00;;;;;;4429859;32;20122;-71
2022/06/22 05:29:46;;;;;;;0.57;0.43;;;22.00;54.00;;;;;;4430015;32;20430;-72
2022/06/22 05:32:37;;;;;;;1.38;0.30;;;22.00;54.00;;;;;;4418318;32;20472;-71
2022/06/22 05:35:10;;;;;;;1.10;0.50;;;22.00;54.10;;;;;;4429786;32;20088;-71
2022/06/22 05:37:40;;;;;;;0.77;0.40;;;22.00;54.00;;;;;;4415746;32;20074;-71
2022/06/22 05:40:07;;;;;;;0.77;0.50;;;22.00;54.10;;;;;;4415995;32;20216;-72
2022/06/22 05:42:34;;;;;;;1.35;0.68;;;22.00;54.10;;;;;;4429351;32;20086;-71
2022/06/22 05:45:25;;;;;;;0.98;0.60;;;22.00;54.10;;;;;;4418542;32;20070;-71
2022/06/22 05:47:53;;;;;;;0.75;0.60;;;22.00;54.10;;;;;;4429319;32;20556;-71
2022/06/22 05:50:37;;;;;;;0.55;0.55;;;22.00;54.10;;;;;;4416061;32;20066;-71
2022/06/22 05:53:13;;;;;;;0.50;0.50;;;22.00;54.10;;;;;;4429489;32;20528;-71
2022/06/22 05:56:05;;;;;;;1.00;0.70;;;22.00;54.20;;;;;;4418158;32;20196;-71
2022/06/22 05:59:02;;;;;;;0.60;0.50;;;22.00;54.10;;;;;;4431771;32;20113;-71
2022/06/22 06:01:50;;;;;;;0.73;0.50;;;22.00;54.20;;;;;;4432477;32;20067;-71
2022/06/22 06:04:42;;;;;;;0.68;0.50;;;22.00;54.20;;;;;;4421013;32;20094;-71
2022/06/22 06:07:38;;;;;;;0.68;0.60;;;22.00;54.20;;;;;;4432534;32;20168;-72
2022/06/22 06:10:14;;;;;;;0.50;0.50;;;22.10;54.30;;;;;;4432525;32;20089;-72
2022/06/22 06:12:49;;;;;;;0.80;0.60;;;22.10;54.30;;;;;;4432801;32;20071;-72
2022/06/22 06:15:15;;;;;;;0.43;0.40;;;22.10;54.30;;;;;;4432511;32;20185;-71
2022/06/22 06:17:48;;;;;;;1.05;0.60;;;22.10;54.20;;;;;;4432569;32;20229;-71
2022/06/22 06:20:38;;;;;;;0.70;0.40;;;22.10;54.20;;;;;;4409938;32;20177;-74
2022/06/22 06:23:15;;;;;;;1.40;0.60;;;22.10;54.30;;;;;;4418285;32;20312;-75
2022/06/22 06:29:01;;;;;;;1.00;0.70;;;22.20;54.60;;;;;;4420760;32;20114;-75
2022/06/22 06:31:57;;;;;;;1.52;0.80;;;22.30;54.90;;;;;;4432522;32;20086;-75
2022/06/22 06:34:30;;;;;;;2.85;0.88;;;22.40;54.90;;;;;;4432221;32;20192;-75
2022/06/22 06:37:39;;;;;;;3.38;1.20;;;22.40;54.80;;;;;;4420476;32;20089;-76
2022/06/22 06:40:07;;;;;;;5.85;1.10;;;22.50;55.30;;;;;;4431927;32;20599;-75
2022/06/22 06:42:42;;;;;;;3.08;1.20;;;22.50;55.10;;;;;;4418228;32;20439;-75
2022/06/22 06:45:15;;;;;;;4.90;1.50;;;22.50;55.30;;;;;;4432383;32;20066;-77
2022/06/22 06:48:06;;;;;;;3.97;1.35;;;22.60;55.40;;;;;;4420580;32;20134;-75
2022/06/22 06:50:56;;;;;;;5.60;1.63;;;22.60;55.20;;;;;;4420616;32;20075;-75
2022/06/22 06:54:07;;;;;;;3.83;1.60;;;22.60;55.00;;;;;;4432169;32;20074;-75
2022/06/22 06:56:57;;;;;;;4.97;1.80;;;22.70;54.90;;;;;;4423732;32;20086;-75
2022/06/22 06:59:29;;;;;;;4.13;1.70;;;22.70;54.80;;;;;;4431531;32;20535;-74
2022/06/22 07:02:28;;;;;;;4.95;1.77;;;22.70;54.70;;;;;;4420396;32;20105;-76
2022/06/22 07:04:57;;;;;;;3.72;1.35;;;22.70;54.50;;;;;;4432066;32;20487;-75
2022/06/22 07:07:34;;;;;;;4.57;1.80;;;22.80;54.40;;;;;;4431830;32;20527;-74
2022/06/22 07:10:08;;;;;;;4.45;1.50;;;22.80;54.30;;;;;;4430893;32;20169;-75
2022/06/22 07:12:36;;;;;;;7.85;2.03;;;22.80;54.00;;;;;;4431709;32;20063;-75
2022/06/22 07:15:05;;;;;;;4.45;1.80;;;22.80;53.80;;;;;;4431529;32;20299;-75
2022/06/22 07:17:32;;;;;;;4.53;1.73;;;22.90;53.70;;;;;;4431469;32;20078;-75
2022/06/22 07:20:15;;;;;;;4.35;1.95;;;22.90;53.50;;;;;;4431625;32;20074;-75
2022/06/22 07:22:52;;;;;;;3.83;1.45;;;22.90;53.00;;;;;;4431485;32;20122;-75
2022/06/22 07:25:44;;;;;;;4.28;1.80;;;22.90;52.90;;;;;;4419546;32;20066;-75
2022/06/22 07:28:48;;;;;;;4.80;1.50;;;22.90;52.80;;;;;;4431297;32;20280;-76
2022/06/22 07:31:27;;;;;;;3.35;1.70;;;23.00;52.70;;;;;;4399887;32;20100;-76
2022/06/22 07:34:11;;;;;;;8.80;2.35;;;23.00;52.60;;;;;;4431546;32;20168;-76
2022/06/22 07:37:08;;;;;;;4.70;2.10;;;23.00;52.50;;;;;;4419834;32;20145;-76
2022/06/22 07:39:40;;;;;;;5.75;2.22;;;23.00;52.40;;;;;;4431098;32;20542;-76
2022/06/22 07:42:26;;;;;;;5.93;2.03;;;23.00;52.50;;;;;;4419844;32;20176;-76
2022/06/22 07:44:53;;;;;;;5.35;1.80;;;23.10;52.40;;;;;;4431141;32;20093;-76
2022/06/22 07:47:36;;;;;;;5.30;1.92;;;23.10;52.30;;;;;;4431018;32;20300;-76
2022/06/22 07:50:29;;;;;;;4.63;1.95;;;23.10;52.20;;;;;;4431864;32;20141;-76
2022/06/22 07:53:10;;;;;;;7.57;2.25;;;23.10;52.20;;;;;;4417609;32;20192;-75
2022/06/22 07:56:01;;;;;;;7.18;2.15;;;23.10;52.10;;;;;;4431085;32;20164;-75
2022/06/22 07:58:45;;;;;;;4.90;2.05;;;23.10;52.00;;;;;;4430978;32;20412;-75
2022/06/22 08:01:37;;;;;;;8.88;2.28;;;23.10;51.90;;;;;;4419558;32;20426;-75
2022/06/22 08:04:27;;;;;;;4.13;1.77;;;23.20;52.00;;;;;;4431210;32;20480;-75
2022/06/22 08:07:37;;;;;;;6.47;2.00;;;23.20;52.00;;;;;;4418943;32;20082;-75
2022/06/22 08:10:18;;;;;;;3.97;1.83;;;23.20;51.90;;;;;;4416939;32;20070;-77
2022/06/22 08:13:11;;;;;;;5.43;2.17;;;23.20;51.90;;;;;;4419365;32;20603;-75
2022/06/22 08:16:03;;;;;;;5.07;2.08;;;23.30;52.10;;;;;;4430918;32;20078;-75
2022/06/22 08:18:30;;;;;;;4.97;2.20;;;23.30;52.00;;;;;;4423983;32;20130;-75
2022/06/22 08:21:18;;;;;;;4.75;2.03;;;23.30;51.90;;;;;;4397077;32;20134;-75
2022/06/22 08:23:45;;;;;;;8.80;2.50;;;23.30;51.80;;;;;;4430496;32;20658;-76
2022/06/22 08:26:22;;;;;;;5.53;1.98;;;23.30;51.80;;;;;;4430433;32;20079;-76
2022/06/22 08:29:09;;;;;;;4.35;2.00;;;23.30;51.70;;;;;;4418894;32;20101;-76
2022/06/22 08:31:42;;;;;;;5.38;1.90;;;23.40;51.80;;;;;;4430221;32;20074;-75
2022/06/22 08:34:15;;;;;;;5.32;2.22;;;23.40;51.80;;;;;;4430508;32;20086;-75
2022/06/22 08:36:50;;;;;;;5.03;1.85;;;23.40;51.70;;;;;;4417209;32;20547;-74
2022/06/22 08:41:44;;;;;;;4.90;2.10;;;23.40;51.70;;;;;;4587206;31;20118;-61
2022/06/22 08:44:18;;;;;;;4.65;2.15;;;23.40;51.80;;;;;;4567290;31;20103;-60
2022/06/22 08:47:19;;;;;;;5.93;2.30;;;23.40;51.80;;;;;;4551285;31;20139;-60
2022/06/22 08:50:17;;;;;;;4.53;1.80;;;23.40;51.80;;;;;;4565933;31;20284;-60
2022/06/22 08:52:53;;;;;;;5.75;2.20;;;23.50;51.90;;;;;;4567410;31;20088;-60
2022/06/22 08:55:56;;;;;;;4.72;2.30;;;23.50;51.90;;;;;;4551591;31;20103;-60
2022/06/22 08:59:07;;;;;;;4.75;2.20;;;23.50;51.80;;;;;;4553487;31;20179;-59
2022/06/22 09:02:26;;;;;;;6.32;2.10;;;23.50;51.80;;;;;;4557201;31;20141;-59
2022/06/22 09:05:42;;;;;;;5.47;2.00;;;23.50;51.60;;;;;;4556821;31;20198;-60
2022/06/22 09:08:33;;;;;;;5.82;2.35;;;23.60;51.50;;;;;;4567972;31;20127;-60
2022/06/22 09:11:32;;;;;;;5.25;2.10;;;23.60;51.40;;;;;;4557587;31;20543;-61
2022/06/22 09:14:47;;;;;;;7.30;2.40;;;23.60;51.40;;;;;;4562367;31;20071;-60
2022/06/22 09:17:40;;;;;;;6.32;2.40;;;23.60;51.20;;;;;;4564094;31;20215;-61
2022/06/22 09:20:43;;;;;;;8.15;2.45;;;23.60;50.90;;;;;;4551363;31;20131;-60
2022/06/22 09:23:28;;;;;;;;;;;23.60;50.80;;;;;;4574565;31;20512;-60
2022/06/22 09:26:16;;;;;;;6.95;2.42;;;23.60;50.70;;;;;;4558660;31;20039;-60
2022/06/22 09:28:58;;;;;;;4.68;2.00;;;23.60;50.80;;;;;;4567325;31;20142;-60
2022/06/22 09:31:42;;;;;;;11.55;2.47;;;23.60;50.80;;;;;;4564666;31;20268;-60
2022/06/22 09:34:52;;;;;;;7.32;2.20;;;23.60;50.70;;;;;;4549171;31;20139;-60
2022/06/22 09:37:39;;;;;;;7.53;2.45;;;23.60;50.80;;;;;;4564367;31;20584;-60
2022/06/22 09:40:29;;;;;;;5.43;2.20;;;23.60;50.80;;;;;;4565414;31;20098;-60
2022/06/22 09:43:49;;;;;;;5.03;2.10;;;23.60;50.90;;;;;;4553338;31;20580;-60
2022/06/22 09:46:15;;;;;;;6.55;2.42;;;23.60;51.00;;;;;;4566275;31;20196;-60
2022/06/22 09:49:00;;;;;;;5.80;2.35;;;23.60;51.00;;;;;;4566306;31;20084;-61
2022/06/22 09:51:58;;;;;;;9.27;2.10;;;23.60;51.10;;;;;;4560638;31;20147;-60
2022/06/22 09:58:36;;;;;;;7.10;2.40;;;23.60;51.30;;;;;;4546995;31;20199;-61
2022/06/22 10:01:14;;;;;;;7.20;2.60;;;23.60;51.40;;;;;;4559096;31;20520;-61
2022/06/22 10:04:02;;;;;;;7.68;2.72;;;23.60;51.40;;;;;;4549342;31;20146;-62
2022/06/22 10:06:48;;;;;;;;;;;23.60;51.40;;;;;;4560026;31;20174;-60
2022/06/22 10:09:43;;;;;;;9.18;2.53;;;23.60;51.50;;;;;;4556532;31;20028;-60
2022/06/22 10:12:44;;;;;;;8.02;2.50;;;23.60;51.50;;;;;;4533995;31;20142;-62
2022/06/22 10:15:34;;;;;;;8.55;2.45;;;23.60;51.60;;;;;;4551656;31;20607;-61
2022/06/22 10:18:38;;;;;;;5.88;2.45;;;23.60;51.60;;;;;;4537214;31;20676;-61
2022/06/22 10:21:07;;;;;;;;;;;23.60;51.70;;;;;;4553586;31;20592;-61
2022/06/22 10:23:45;;;;;;;8.70;2.38;;;23.60;51.90;;;;;;4549964;31;20016;-60
2022/06/22 10:26:38;;;;;;;9.40;2.38;;;23.60;51.90;;;;;;4549339;31;20278;-60
2022/06/22 10:37:27;;;;;;;8.85;2.47;;;23.70;51.90;;;;;;4532185;26;20235;-70
2022/06/22 10:40:03;;;;;;;6.78;2.47;;;23.70;52.10;;;;;;4492622;31;20092;-64
2022/06/22 10:45:49;;;;;;;7.22;1.90;;;23.70;52.00;;;;;;4493257;31;20089;-62
2022/06/22 10:48:53;;;;;;;6.70;2.35;;;23.70;51.90;;;;;;4493414;31;20486;-62
2022/06/22 10:51:45;;;;;;;6.25;2.22;;;23.70;51.90;;;;;;4492471;31;20077;-62
2022/06/22 10:54:49;;;;;;;4.70;1.98;;;23.70;51.90;;;;;;4492581;31;20073;-62
2022/06/22 10:57:46;;;;;;;4.30;1.98;;;23.70;51.90;;;;;;4493217;31;20517;-64
2022/06/22 11:00:36;;;;;;;6.75;2.20;;;23.70;51.90;;;;;;4493137;31;20065;-63
2022/06/22 11:03:40;;;;;;;7.53;2.35;;;23.70;51.90;;;;;;4492414;31;20211;-63
2022/06/22 11:06:25;;;;;;;4.32;1.90;;;23.70;51.90;;;;;;4493245;31;20073;-63
2022/06/22 11:09:29;;;;;;;5.50;2.20;;;23.70;52.10;;;;;;4493392;31;20124;-63
2022/06/22 11:12:38;;;;;;;5.68;2.42;;;23.70;52.20;;;;;;4433079;32;20078;-63
2022/06/22 11:15:22;;;;;;;7.43;2.30;;;23.60;52.10;;;;;;4484215;31;20120;-62
2022/06/22 11:18:17;;;;;;;;;;;23.70;52.20;;;;;;4492903;31;20087;-64
2022/06/22 11:21:12;;;;;;;4.72;2.20;;;23.70;52.40;;;;;;4492523;31;19977;-64
2022/06/22 11:24:03;;;;;;;11.25;2.70;;;23.70;52.40;;;;;;4493145;31;20486;-64
2022/06/22 11:33:21;;;;;;;7.40;2.83;;;23.70;52.40;;;;;;4493039;31;20079;-64
2022/06/22 11:35:47;;;;;;;;;;;23.80;52.40;;;;;;4492047;31;20278;-64
2022/06/22 11:38:22;;;;;;;5.28;2.13;;;23.80;52.30;;;;;;4492627;31;20097;-63
2022/06/22 11:40:59;;;;;;;5.50;2.20;;;23.80;52.30;;;;;;4492600;31;20065;-63
2022/06/22 11:44:05;;;;;;;6.25;2.35;;;23.80;52.30;;;;;;4492365;31;20075;-64
2022/06/22 11:46:39;;;;;;;5.85;2.42;;;23.80;52.30;;;;;;4492848;31;20195;-63
2022/06/22 11:49:30;;;;;;;7.53;2.83;;;23.80;52.20;;;;;;4492732;31;20092;-64
2022/06/22 11:52:17;;;;;;;5.38;2.67;;;23.80;52.10;;;;;;4491632;31;20418;-63
2022/06/22 11:55:17;;;;;;;5.75;2.50;;;23.80;52.00;;;;;;4491407;31;20065;-63
2022/06/22 11:58:18;;;;;;;4.80;1.98;;;23.80;51.90;;;;;;4492435;31;20077;-63
2022/06/22 12:00:53;;;;;;;5.15;2.17;;;23.80;51.80;;;;;;4491536;31;20104;-63
2022/06/22 12:04:01;;;;;;;6.80;2.80;;;23.80;51.70;;;;;;4492501;31;20151;-64
2022/06/22 12:06:58;;;;;;;6.10;2.30;;;23.80;51.60;;;;;;4491964;31;20223;-63
2022/06/22 12:09:47;;;;;;;6.85;2.85;;;23.80;51.70;;;;;;4492527;31;20584;-63
2022/06/22 12:12:46;;;;;;;4.63;2.30;;;23.80;51.80;;;;;;4491994;31;20539;-63
2022/06/22 12:15:30;;;;;;;5.63;2.20;;;23.80;51.80;;;;;;4492001;31;20080;-63
2022/06/22 12:18:14;;;;;;;6.15;2.47;;;23.80;52.00;;;;;;4491848;31;20395;-64
2022/06/22 12:20:52;;;;;;;5.45;2.60;;;23.80;52.10;;;;;;4492088;31;20496;-64
2022/06/22 12:23:56;;;;;;;5.07;2.22;;;23.80;52.10;;;;;;4492349;31;20502;-65
2022/06/22 12:26:31;;;;;;;5.28;2.22;;;23.80;52.30;;;;;;4492498;31;20065;-64
2022/06/22 12:29:31;;;;;;;7.47;2.58;;;23.80;52.30;;;;;;4491833;31;20096;-64
2022/06/22 12:32:02;;;;;;;6.65;2.30;;;23.90;52.40;;;;;;4491855;31;20487;-64
2022/06/22 12:35:04;;;;;;;8.13;2.53;;;23.90;52.50;;;;;;4492128;31;20077;-64
2022/06/22 12:37:36;;;;;;;6.72;2.90;;;23.90;52.60;;;;;;4491515;31;20486;-64
2022/06/22 12:40:24;;;;;;;5.57;2.45;;;23.90;52.50;;;;;;4491967;31;20073;-64
2022/06/22 12:43:19;;;;;;;6.00;2.25;;;23.90;52.60;;;;;;4492294;32;20158;-64
2022/06/22 12:45:44;;;;;;;;;;;23.90;52.50;;;;;;4492868;31;20085;-64
2022/06/22 12:48:33;;;;;;;7.55;2.40;;;23.80;52.50;;;;;;4492163;31;20288;-64
2022/06/22 12:51:31;;;;;;;6.15;2.40;;;23.90;52.50;;;;;;4491950;32;20194;-65
2022/06/22 12:54:06;;;;;;;8.07;2.47;;;23.90;52.40;;;;;;4492139;32;20215;-64
2022/06/22 12:56:46;;;;;;;5.13;2.30;;;23.90;52.40;;;;;;4491838;32;20088;-64
2022/06/22 12:59:19;;;;;;;5.70;2.53;;;23.90;52.30;;;;;;4491859;32;20127;-64
2022/06/22 13:01:46;;;;;;;5.28;2.20;;;23.90;52.20;;;;;;4491754;32;20529;-64
2022/06/22 13:04:25;;;;;;;7.47;2.47;;;23.90;52.20;;;;;;4491698;32;20131;-64
2022/06/22 13:06:55;;;;;;;5.57;2.55;;;24.00;52.20;;;;;;4491947;32;20301;-64
2022/06/22 13:09:22;;;;;;;7.03;2.33;;;23.90;52.20;;;;;;4491673;32;20085;-64
2022/06/22 13:11:50;;;;;;;7.05;2.90;;;23.90;52.20;;;;;;4491851;32;20158;-65
2022/06/22 13:14:29;;;;;;;7.30;2.80;;;24.00;52.10;;;;;;4491719;32;20199;-64
2022/06/22 13:17:00;;;;;;;8.18;2.75;;;23.90;51.90;;;;;;4491756;32;20583;-64
2022/06/22 13:19:39;;;;;;;5.38;2.13;;;23.90;52.00;;;;;;4491690;32;20517;-64
2022/06/22 13:22:24;;;;;;;7.68;2.60;;;23.90;51.90;;;;;;4491917;32;20252;-64
2022/06/22 13:25:16;;;;;;;7.80;2.42;;;23.90;51.90;;;;;;4491988;32;20553;-64
2022/06/22 13:28:15;;;;;;;6.15;2.45;;;23.90;51.90;;;;;;4475184;31;20073;-64
2022/06/22 13:31:01;;;;;;;7.80;2.50;;;23.90;51.80;;;;;;4494607;31;20427;-64
2022/06/22 13:33:52;;;;;;;7.30;2.58;;;23.90;51.60;;;;;;4494554;31;20088;-64
2022/06/22 13:36:55;;;;;;;7.90;2.50;;;23.80;51.60;;;;;;4494371;31;20165;-64
2022/06/22 13:39:58;;;;;;;6.72;2.33;;;23.80;51.60;;;;;;4479564;31;20081;-65
2022/06/22 13:42:37;;;;;;;6.32;2.17;;;23.80;51.60;;;;;;4494399;31;20116;-64
2022/06/22 13:45:22;;;;;;;12.35;2.88;;;23.80;51.60;;;;;;4494674;31;20109;-64
2022/06/22 13:48:10;;;;;;;13.85;3.03;;;23.90;51.60;;;;;;4493206;31;20506;-64
2022/06/22 13:53:58;;;;;;;7.43;2.40;;;23.90;51.50;;;;;;4494528;31;20061;-64
2022/06/22 13:57:02;;;;;;;8.32;2.38;;;23.90;51.30;;;;;;4493967;31;20561;-64
2022/06/22 13:59:58;;;;;;;7.63;2.20;;;23.90;51.20;;;;;;4493979;31;20088;-64
2022/06/22 14:02:45;;;;;;;6.13;2.00;;;23.90;51.10;;;;;;4493635;31;20127;-65
2022/06/22 14:05:39;;;;;;;5.65;1.95;;;23.90;51.10;;;;;;4494253;31;20139;-65
2022/06/22 14:08:24;;;;;;;6.25;2.53;;;23.90;52.20;;;;;;4493926;31;20089;-66
2022/06/22 14:11:05;;;;;;;8.27;2.03;;;24.00;51.50;;;;;;4493696;31;20097;-65
2022/06/22 14:13:58;;;;;;;7.15;2.25;;;24.00;51.50;;;;;;4493985;31;20543;-65
2022/06/22 14:16:41;;;;;;;7.32;2.08;;;24.00;51.50;;;;;;4494056;31;20170;-65
2022/06/22 14:19:10;;;;;;;6.95;2.08;;;24.00;51.60;;;;;;4493917;31;20076;-65
2022/06/22 14:21:44;;;;;;;7.30;2.35;;;24.00;51.60;;;;;;4493804;31;20107;-65
2022/06/22 14:24:31;;;;;;;6.00;2.10;;;24.00;51.60;;;;;;4494124;31;20095;-64
2022/06/22 14:27:12;;;;;;;6.20;2.33;;;24.00;51.80;;;;;;4493764;31;20088;-64
2022/06/22 14:30:00;;;;;;;5.70;2.22;;;24.00;51.80;;;;;;4493565;31;20091;-64
2022/06/22 14:32:44;;;;;;;6.50;2.47;;;24.10;52.00;;;;;;4492633;31;20411;-64
2022/06/22 14:35:25;;;;;;;5.93;2.15;;;24.10;52.10;;;;;;4493641;31;20077;-65
2022/06/22 14:38:03;;;;;;;4.10;1.80;;;24.10;52.10;;;;;;4493300;31;20077;-64
2022/06/22 14:40:37;;;;;;;3.35;1.70;;;24.10;52.10;;;;;;4493598;31;20084;-64
2022/06/22 14:43:13;;;;;;;4.13;1.60;;;24.10;52.20;;;;;;4493391;31;20084;-65
2022/06/22 14:45:49;;;;;;;4.85;2.22;;;24.10;52.10;;;;;;4493770;31;20069;-65
2022/06/22 14:48:36;;;;;;;7.28;2.33;;;24.10;52.20;;;;;;4493506;31;20085;-64
2022/06/22 14:51:26;;;;;;;4.70;2.15;;;24.20;52.40;;;;;;4493243;31;20091;-65
2022/06/22 14:54:12;;;;;;;4.82;1.85;;;24.20;52.30;;;;;;4493443;31;20069;-64